Flight Track Log - Related Links

Times and Time Zones

All times are in EDT time to prevent confusion due to time zone crossing. See the N109LU flight status page for this flight to view local times or setup timezone preferences in your user account.

Time Position Orientation Groundspeed Altitude Reporting Facility
EDT Latitude Longitude Course Direction KTS MPH feet Rate Location/Type
Tue 09:41:12 AM 26.4081 -80.0711 360° North 84 97 1,500  Level Miami Center
Tue 09:42:14 AM 26.4331 -80.0722 358° North 90 104 2,100 634 Climbing Miami Center
Tue 09:43:15 AM 26.4589 -80.0778 349° North 89 102 2,800 537 Climbing Miami Center
Tue 09:44:17 AM 26.4875 -80.0836 350° North 100 115 3,200 488 Climbing Miami Center
Tue 09:45:00 AM 26.5554 -80.0833 North  Level FlightAware Approximate
Tue 09:45:18 AM 26.5147 -80.0908 347° North 100 115 3,800  Level Miami Center
Tue 09:46:00 AM 26.5850 -80.0833 360° North  Level FlightAware Approximate
Tue 09:46:20 AM 26.5417 -80.1014 341° North 97 112 4,400  Level Miami Center
Tue 09:47:21 AM 26.5672 -80.1114 341° North 97 112 4,800 295 Climbing Miami Center
Tue 09:48:22 AM 26.5958 -80.1208 344° North 105 121 5,000 98 Climbing Miami Center
Tue 09:49:24 AM 26.6303 -80.1342 341° North 120 138 5,000 -49 Level Miami Center
Tue 09:50:25 AM 26.6619 -80.1469 340° North 120 138 4,900 -49 Descending Miami Center
Tue 09:51:27 AM 26.6944 -80.1564 345° North 120 138 4,900  Level Miami Center
Tue 09:52:28 AM 26.7261 -80.1761 331° Northwest 120 138 4,900 49 Level Miami Center
Tue 09:53:30 AM 26.7597 -80.1847 347° North 122 140 5,000  Climbing Miami Center
Tue 09:54:31 AM 26.7922 -80.1956 343° North 122 140 4,900 -293 Descending Miami Center
Tue 09:55:33 AM 26.8281 -80.2058 346° North 124 143 4,400 -537 Descending Miami Center
Tue 09:56:34 AM 26.8653 -80.2181 344° North 129 148 3,800 -683 Descending Miami Center
Tue 09:57:36 AM 26.9031 -80.2308 343° North 132 152 3,000 -390 Descending Miami Center
Tue 09:58:37 AM 26.9356 -80.2417 343° North 131 151 3,000 -49 Level Miami Center
Tue 09:59:39 AM 26.9689 -80.2467 352° North 121 139 2,900 -49 Descending Miami Center
Tue 10:00:40 AM 26.9878 -80.2097 60° Northeast 128 147 2,900  Level Miami Center
Tue 10:01:42 AM 27.0006 -80.1772 66° East 125 144 2,900 49 Level Miami Center
Tue 10:02:43 AM 27.0144 -80.1394 68° East 125 144 3,000  Climbing Miami Center
Tue 10:03:45 AM 27.0161 -80.0978 87° East 125 144 2,900  Descending Miami Center
Tue 10:04:46 AM 27.0208 -80.0586 82° East 121 139 3,000 49 Climbing Miami Center
Tue 10:05:48 AM 27.0508 -80.0456 21° North 124 143 3,000 -146 Level Miami Center
Tue 10:06:49 AM 27.0858 -80.0358 14° North 124 143 2,700 -439 Descending Miami Center
Tue 10:07:51 AM 27.1161 -80.0386 355° North 118 136 2,100 -537 Descending Miami Center
Tue 10:08:52 AM 27.1300 -80.0706 296° West 112 129 1,600 -244 Descending Miami Center
Tue 10:09:54 AM 27.1372 -80.0978 287° West 100 115 1,600  Level Miami Center
Tue 10:10:55 AM 27.1494 -80.1278 295° West 102 117 1,600 -244 Level Miami Center
Tue 10:11:57 AM 27.1575 -80.1575 287° West 98 113 1,100 -439 Descending Miami Center
Tue 10:12:58 AM 27.1658 -80.1850 289° West 90 104 700 -393 Descending Miami Center
Tue 10:14:00 AM 27.1667 -80.2167 North  Level FlightAware Approximate
Tue 10:21:00 AM 27.1817 -80.2213 North  Level Estimated
Tue 10:22:00 AM 27.1817 -80.2213 North  Level Estimated

Login

Don't have an account? Register now (free) for customized features, flight alerts, and more!